Greater Rochester International Airport Rochester US
ICAO: KROC
IATA: ROC
Category: Large
Scheduled Services: Yes

Elevation: 559 ft
TransAlt. 18000 ft.

Airport Communications:
APP/DEP:119.55
ATIS:124.825
CLNC DEL:118.3
GND:121.7
ARNG OPS:41
BUFFALO RDO:122.6
TWR:118.3
UNICOM:122.95

KROC Zoom In..

If you have problems with the map follow the link
https://www.worldairports.se/pages/airport.php?
ICAO=KROC

Runways:

(A) RW 04 length 8001 ft width 150 ft
ILS 110.70 / hdg 41

(B) RW 07 length 4000 ft width 100 ft
---- / hdg 73

(C) RW 10 length 6401 ft width 150 ft
---- / hdg 98

(D) RW 22 length 8001 ft width 150 ft
ILS 110.70 / hdg 221

(E) RW 25 length 4000 ft width 100 ft
---- / hdg 253

(F) RW 28 length 6401 ft width 150 ft
ILS 109.50 / hdg 278

Location; KROC
Day. 11 / Time. 14.10 Zulu
* Altimeter: 30.22
* Temperature: -04° c. -24.8°f.
* Wind from: 230° Speed 06 kn.
Dewpoint: -07° c.
Visibility: 4 Statute Miles.
Clouds: Scattered 2300 ft.
Clouds: Broken 3400 ft.
Clouds: Broken 7000 ft.
Conditions: Light Snow.Conditions: Mist.

KROC 111410Z 23006KT 4SM -SN BR SCT023 BKN034 BKN070 M04/M07 A3022 RMK AO2 VIS NW-NE 2 P0000 T10441067 $


Wind From 230°
Speed 06 kn.

 
 
jpsmedia worldairports.se 2019   terms of use